createdAt,value
2023-08-07T00:02:08.113Z,4.10
2023-08-07T00:04:35.737Z,4.18
2023-08-07T00:07:03.566Z,3.70
2023-08-07T00:09:32.089Z,4.40
2023-08-07T00:11:59.696Z,4.13
2023-08-07T00:14:27.381Z,5.15
2023-08-07T00:16:54.966Z,4.32
2023-08-07T00:22:07.679Z,3.95
2023-08-07T00:27:20.449Z,4.38
2023-08-07T00:29:48.055Z,4.20
2023-08-07T00:32:34.674Z,4.53
2023-08-07T00:35:02.405Z,4.72
2023-08-07T00:37:30.916Z,4.20
2023-08-07T00:39:58.602Z,4.22
2023-08-07T00:42:26.205Z,4.10
2023-08-07T00:44:54.207Z,4.00
2023-08-07T00:47:22.129Z,4.13
2023-08-07T00:49:50.039Z,3.92
2023-08-07T00:52:20.372Z,4.22
2023-08-07T00:54:48.466Z,4.03
2023-08-07T00:57:18.110Z,4.43
2023-08-07T00:59:46.133Z,3.90
2023-08-07T01:02:14.902Z,4.57
2023-08-07T01:04:42.616Z,4.10
2023-08-07T01:10:14.258Z,4.38
2023-08-07T01:12:53.889Z,3.87
2023-08-07T01:15:31.099Z,3.53
2023-08-07T01:18:01.009Z,3.55
2023-08-07T01:23:32.749Z,4.28
2023-08-07T01:26:00.961Z,3.85
2023-08-07T01:28:34.310Z,4.03
2023-08-07T01:31:25.663Z,4.20
2023-08-07T01:34:00.452Z,4.30
2023-08-07T01:36:30.843Z,3.92
2023-08-07T01:38:59.857Z,4.97
2023-08-07T01:41:28.463Z,4.10
2023-08-07T01:43:56.321Z,4.13
2023-08-07T01:46:24.011Z,4.15
2023-08-07T01:48:51.686Z,4.05
2023-08-07T01:51:37.524Z,4.47
2023-08-07T01:54:05.180Z,4.20
2023-08-07T01:56:32.763Z,4.15
2023-08-07T01:59:00.361Z,4.05
2023-08-07T02:01:27.968Z,3.90
2023-08-07T02:03:55.658Z,4.55
2023-08-07T02:06:23.241Z,4.22
2023-08-07T02:08:50.890Z,4.40
2023-08-07T02:11:18.629Z,4.45
2023-08-07T02:13:46.378Z,4.63
2023-08-07T02:16:15.057Z,4.55
2023-08-07T02:18:42.971Z,3.90
2023-08-07T02:21:30.407Z,4.45
2023-08-07T02:23:58.204Z,4.35
2023-08-07T02:26:25.786Z,4.50
2023-08-07T02:28:53.453Z,4.28
2023-08-07T02:31:21.137Z,4.13
2023-08-07T02:33:48.764Z,3.72
2023-08-07T02:36:16.356Z,4.35
2023-08-07T02:38:44.093Z,4.57
2023-08-07T02:41:11.662Z,3.88
2023-08-07T02:43:39.417Z,4.00
2023-08-07T02:46:07.073Z,4.45
2023-08-07T02:48:34.774Z,3.92
2023-08-07T02:51:02.326Z,4.28
2023-08-07T02:53:29.915Z,4.07
2023-08-07T02:56:15.873Z,4.50
2023-08-07T02:58:43.535Z,4.30
2023-08-07T03:01:12.840Z,4.30
2023-08-07T03:03:40.595Z,4.50
2023-08-07T03:06:08.190Z,4.38
2023-08-07T03:08:35.863Z,4.25
2023-08-07T03:11:03.479Z,4.50
2023-08-07T03:13:31.147Z,4.15
2023-08-07T03:16:17.535Z,4.00
2023-08-07T03:18:46.309Z,3.80
2023-08-07T03:21:14.065Z,4.15
2023-08-07T03:23:42.801Z,4.43
2023-08-07T03:26:29.938Z,4.03
2023-08-07T03:28:57.849Z,4.22
2023-08-07T03:31:25.445Z,5.50
2023-08-07T03:36:57.617Z,4.80
2023-08-07T03:39:25.962Z,4.07
2023-08-07T03:41:53.682Z,4.07
2023-08-07T03:44:21.417Z,4.15
2023-08-07T03:46:49.063Z,3.53
2023-08-07T03:49:16.752Z,3.80
2023-08-07T03:54:29.295Z,3.47
2023-08-07T03:56:57.150Z,3.55
2023-08-07T03:59:25.112Z,3.17
2023-08-07T04:01:52.769Z,3.72
2023-08-07T04:04:39.223Z,3.70
2023-08-07T04:07:06.915Z,3.08
2023-08-07T04:09:53.162Z,3.70
2023-08-07T04:12:21.905Z,3.28
2023-08-07T04:15:07.978Z,3.20
2023-08-07T04:17:54.378Z,3.30
2023-08-07T04:20:22.086Z,3.25
2023-08-07T04:22:49.687Z,3.47
2023-08-07T04:25:17.434Z,2.97
2023-08-07T04:27:45.138Z,3.35
2023-08-07T04:30:13.575Z,3.67
2023-08-07T04:32:41.885Z,3.20
2023-08-07T04:35:10.515Z,3.25
2023-08-07T04:37:38.197Z,3.28
2023-08-07T04:40:06.114Z,3.28
2023-08-07T04:42:33.846Z,3.22
2023-08-07T04:45:01.377Z,2.90
2023-08-07T04:47:30.118Z,2.92
2023-08-07T04:49:57.886Z,3.13
2023-08-07T04:52:26.900Z,3.10
2023-08-07T04:54:54.806Z,3.22
2023-08-07T04:57:22.467Z,3.03
2023-08-07T04:59:50.174Z,3.03
2023-08-07T05:02:17.777Z,2.72
2023-08-07T05:04:45.646Z,3.33
2023-08-07T05:07:13.433Z,2.58
2023-08-07T05:09:41.000Z,2.50
2023-08-07T05:12:27.474Z,2.72
2023-08-07T05:14:55.193Z,2.33
2023-08-07T05:17:23.148Z,2.70
2023-08-07T05:19:50.893Z,3.08
2023-08-07T05:22:18.499Z,2.60
2023-08-07T05:24:46.694Z,2.95
2023-08-07T05:27:14.261Z,3.55
2023-08-07T05:29:45.182Z,2.97
2023-08-07T05:32:14.391Z,2.38
2023-08-07T05:35:01.144Z,2.75
2023-08-07T05:37:47.608Z,2.63
2023-08-07T05:40:15.220Z,2.70
2023-08-07T05:42:43.041Z,3.55
2023-08-07T05:45:11.962Z,2.72
2023-08-07T05:47:39.713Z,2.80
2023-08-07T05:50:07.818Z,2.67
2023-08-07T05:52:36.401Z,2.88
2023-08-07T05:55:07.485Z,3.20
2023-08-07T05:57:36.256Z,2.60
2023-08-07T06:00:05.011Z,2.55
2023-08-07T06:02:40.161Z,2.85
2023-08-07T06:05:09.008Z,2.70
2023-08-07T06:07:36.707Z,2.38
2023-08-07T06:10:04.674Z,2.67
2023-08-07T06:12:32.690Z,2.20
2023-08-07T06:15:00.367Z,2.15
2023-08-07T06:17:28.693Z,2.45
2023-08-07T06:19:56.334Z,3.60
2023-08-07T06:22:24.180Z,2.30
2023-08-07T06:24:51.938Z,2.67
2023-08-07T06:27:23.101Z,2.65
2023-08-07T06:29:50.732Z,2.33
2023-08-07T06:32:19.523Z,2.45
2023-08-07T06:34:47.930Z,2.47
2023-08-07T06:37:15.547Z,2.45
2023-08-07T06:39:43.208Z,2.28
2023-08-07T06:42:10.807Z,3.00
2023-08-07T06:44:38.471Z,2.70
2023-08-07T06:47:24.444Z,2.00
2023-08-07T06:50:11.358Z,2.90
2023-08-07T06:52:39.532Z,2.67
2023-08-07T06:55:08.022Z,2.25
2023-08-07T06:57:36.056Z,2.72
2023-08-07T07:00:04.348Z,2.10
2023-08-07T07:02:34.020Z,2.50
2023-08-07T07:05:02.181Z,2.30
2023-08-07T07:07:31.257Z,2.78
2023-08-07T07:10:02.095Z,1.90
2023-08-07T07:12:32.765Z,2.08
2023-08-07T07:15:00.424Z,2.58
2023-08-07T07:17:28.053Z,1.92
2023-08-07T07:19:56.468Z,2.25
2023-08-07T07:22:43.067Z,2.20
2023-08-07T07:27:38.241Z,1.80
2023-08-07T07:30:06.810Z,2.20
2023-08-07T07:32:34.635Z,2.15
2023-08-07T07:35:02.756Z,1.92
2023-08-07T07:37:32.599Z,2.22
2023-08-07T07:40:00.334Z,3.08
2023-08-07T07:42:27.950Z,2.50
2023-08-07T07:44:56.042Z,2.22
2023-08-07T07:47:23.624Z,2.10
2023-08-07T07:50:07.053Z,1.92
2023-08-07T07:52:34.769Z,2.20
2023-08-07T07:55:02.442Z,2.20
2023-08-07T07:57:30.526Z,2.20
2023-08-07T07:59:58.318Z,1.70
2023-08-07T08:02:26.027Z,1.98
2023-08-07T08:04:53.919Z,2.00
2023-08-07T08:07:21.797Z,2.10
2023-08-07T08:10:09.855Z,2.47
2023-08-07T08:12:38.010Z,2.45
2023-08-07T08:15:06.156Z,2.05
2023-08-07T08:17:34.910Z,2.15
2023-08-07T08:20:02.661Z,2.20
2023-08-07T08:22:33.275Z,2.00
2023-08-07T08:25:00.945Z,1.80
2023-08-07T08:27:28.470Z,1.70
2023-08-07T08:29:56.166Z,1.60
2023-08-07T08:32:23.791Z,1.90
2023-08-07T08:34:51.421Z,1.70
2023-08-07T08:37:19.442Z,2.10
2023-08-07T08:39:47.544Z,2.13
2023-08-07T08:42:19.570Z,1.75
2023-08-07T08:47:38.657Z,2.13
2023-08-07T08:50:25.640Z,2.03
2023-08-07T08:52:56.591Z,1.85
2023-08-07T08:55:24.737Z,1.70
2023-08-07T08:58:11.236Z,1.60
2023-08-07T09:00:39.109Z,1.88
2023-08-07T09:03:06.923Z,1.50
2023-08-07T09:05:36.757Z,1.90
2023-08-07T09:08:06.518Z,1.73
2023-08-07T09:10:35.777Z,1.70
2023-08-07T09:13:06.821Z,2.30
2023-08-07T09:15:34.701Z,1.88
2023-08-07T09:18:08.677Z,2.10
2023-08-07T09:20:40.817Z,1.75
2023-08-07T09:23:08.880Z,1.60
2023-08-07T09:26:02.110Z,2.03
2023-08-07T09:28:33.103Z,1.60
2023-08-07T09:31:03.154Z,1.38
2023-08-07T09:33:34.283Z,2.13
2023-08-07T09:36:02.881Z,2.13
2023-08-07T09:38:33.969Z,1.90
2023-08-07T09:41:06.971Z,1.70
2023-08-07T09:43:38.162Z,1.60
2023-08-07T09:46:07.273Z,2.35
2023-08-07T09:48:45.111Z,2.00
2023-08-07T09:51:12.939Z,1.60
2023-08-07T09:53:41.663Z,1.98
2023-08-07T09:56:10.256Z,2.22
2023-08-07T09:58:37.885Z,2.15
2023-08-07T10:01:05.863Z,1.75
2023-08-07T10:03:33.967Z,1.90
2023-08-07T10:06:02.592Z,1.77
2023-08-07T10:08:31.119Z,1.70
2023-08-07T10:11:18.548Z,1.20
2023-08-07T10:13:46.762Z,1.75
2023-08-07T10:16:33.173Z,1.50
2023-08-07T10:19:00.870Z,1.50
2023-08-07T10:21:28.901Z,1.38
2023-08-07T10:23:58.721Z,1.80
2023-08-07T10:26:27.458Z,2.00
2023-08-07T10:28:55.739Z,1.60
2023-08-07T10:31:43.542Z,1.73
2023-08-07T10:34:11.431Z,1.52
2023-08-07T10:36:57.719Z,1.73
2023-08-07T10:39:25.731Z,2.10
2023-08-07T10:41:56.458Z,2.20
2023-08-07T10:44:32.224Z,1.90
2023-08-07T10:49:38.188Z,1.52
2023-08-07T10:52:26.204Z,1.58
2023-08-07T10:54:55.630Z,2.08
2023-08-07T10:57:24.307Z,2.00
2023-08-07T10:59:57.648Z,1.90
2023-08-07T11:02:29.490Z,1.75
2023-08-07T11:04:57.995Z,1.80
2023-08-07T11:07:45.732Z,1.95
2023-08-07T11:10:18.084Z,1.70
2023-08-07T11:12:47.114Z,1.80
2023-08-07T11:15:15.967Z,2.10
2023-08-07T11:17:44.061Z,1.85
2023-08-07T11:20:12.312Z,2.03
2023-08-07T11:22:40.580Z,1.70
2023-08-07T11:25:12.180Z,2.20
2023-08-07T11:27:39.895Z,1.90
2023-08-07T11:30:11.957Z,2.00
2023-08-07T11:32:39.688Z,1.88
2023-08-07T11:35:08.011Z,1.95
2023-08-07T11:37:35.707Z,1.88
2023-08-07T11:40:21.661Z,1.83
2023-08-07T11:42:49.347Z,2.00
2023-08-07T11:45:17.079Z,2.05
2023-08-07T11:47:44.959Z,1.83
2023-08-07T11:50:12.994Z,1.90
2023-08-07T11:52:41.389Z,2.25
2023-08-07T11:55:10.537Z,2.17
2023-08-07T11:57:41.187Z,1.80
2023-08-07T12:00:15.321Z,1.70
2023-08-07T12:02:45.826Z,1.90
2023-08-07T12:05:13.773Z,1.50
2023-08-07T12:07:41.438Z,2.08
2023-08-07T12:10:10.871Z,1.70
2023-08-07T12:12:57.701Z,1.92
2023-08-07T12:15:25.427Z,1.85
2023-08-07T12:18:02.369Z,1.90
2023-08-07T12:20:30.233Z,1.75
2023-08-07T12:22:57.761Z,1.88
2023-08-07T12:25:25.389Z,2.30
2023-08-07T12:27:53.846Z,2.28
2023-08-07T12:30:21.574Z,2.03
2023-08-07T12:32:49.187Z,1.85
2023-08-07T12:35:16.934Z,2.13
2023-08-07T12:37:45.075Z,1.80
2023-08-07T12:42:43.306Z,2.35
2023-08-07T12:45:11.308Z,1.80
2023-08-07T12:47:39.163Z,2.22
2023-08-07T12:50:07.737Z,1.75
2023-08-07T12:52:36.309Z,2.05
2023-08-07T12:55:05.180Z,2.10
2023-08-07T13:00:37.224Z,3.00
2023-08-07T13:03:05.089Z,2.92
2023-08-07T13:05:32.720Z,2.53
2023-08-07T13:08:00.581Z,2.15
2023-08-07T13:10:32.571Z,2.60
2023-08-07T13:13:02.637Z,2.63
2023-08-07T13:15:30.642Z,2.28
2023-08-07T13:18:18.004Z,2.38
2023-08-07T13:20:46.106Z,2.45
2023-08-07T13:23:15.300Z,2.08
2023-08-07T13:25:43.018Z,2.00
2023-08-07T13:28:10.562Z,2.40
2023-08-07T13:30:38.368Z,2.35
2023-08-07T13:33:06.159Z,2.83
2023-08-07T13:35:37.309Z,2.72
2023-08-07T13:38:07.101Z,2.17
2023-08-07T13:40:35.723Z,2.10
2023-08-07T13:43:09.071Z,2.08
2023-08-07T13:45:55.899Z,2.25
2023-08-07T13:51:12.852Z,2.47
2023-08-07T13:53:40.439Z,2.60
2023-08-07T13:56:10.070Z,2.53
2023-08-07T13:58:37.707Z,2.30
2023-08-07T14:01:05.678Z,1.90
2023-08-07T14:03:33.681Z,2.40
2023-08-07T14:06:02.854Z,2.10
2023-08-07T14:08:30.545Z,2.13
2023-08-07T14:10:58.111Z,2.72
2023-08-07T14:13:25.830Z,2.65
2023-08-07T14:15:53.339Z,2.60
2023-08-07T14:18:21.112Z,2.80
2023-08-07T14:21:00.774Z,2.40
2023-08-07T14:23:33.854Z,3.03
2023-08-07T14:26:02.973Z,1.90
2023-08-07T14:28:30.663Z,2.67
2023-08-07T14:31:00.623Z,2.50
2023-08-07T14:33:29.548Z,1.90
2023-08-07T14:35:57.303Z,1.80
2023-08-07T14:38:24.862Z,2.40
2023-08-07T14:40:52.616Z,2.70
2023-08-07T14:43:20.235Z,2.45
2023-08-07T14:46:06.418Z,3.05
2023-08-07T14:48:34.213Z,2.67
2023-08-07T14:51:01.771Z,2.70
2023-08-07T14:53:29.775Z,3.17
2023-08-07T14:55:58.061Z,2.83
2023-08-07T14:58:25.840Z,3.60
2023-08-07T15:00:56.650Z,2.22
2023-08-07T15:03:43.465Z,2.65
2023-08-07T15:06:11.335Z,2.30
2023-08-07T15:08:38.950Z,2.42
2023-08-07T15:11:25.048Z,3.20
2023-08-07T15:13:53.088Z,2.55
2023-08-07T15:16:20.753Z,2.00
2023-08-07T15:18:48.993Z,2.60
2023-08-07T15:21:16.539Z,2.60
2023-08-07T15:23:44.253Z,2.60
2023-08-07T15:26:30.597Z,2.72
2023-08-07T15:28:58.334Z,2.50
2023-08-07T15:31:25.932Z,2.78
2023-08-07T15:33:54.372Z,2.55
2023-08-07T15:36:22.244Z,2.30
2023-08-07T15:38:49.839Z,2.45
2023-08-07T15:41:17.614Z,2.28
2023-08-07T15:43:45.676Z,2.08
2023-08-07T15:46:13.394Z,1.98
2023-08-07T15:48:41.084Z,2.22
2023-08-07T15:51:08.945Z,2.58
2023-08-07T15:53:36.917Z,2.35
2023-08-07T15:56:05.027Z,2.10
2023-08-07T15:58:32.739Z,2.28
2023-08-07T16:01:00.411Z,1.95
2023-08-07T16:03:28.397Z,2.30
2023-08-07T16:05:56.038Z,2.28
2023-08-07T16:08:24.307Z,1.80
2023-08-07T16:10:53.900Z,2.38
2023-08-07T16:13:24.286Z,2.15
2023-08-07T16:15:52.038Z,2.35
2023-08-07T16:18:19.737Z,2.03
2023-08-07T16:20:47.439Z,2.38
2023-08-07T16:23:15.042Z,2.25
2023-08-07T16:25:42.679Z,2.58
2023-08-07T16:28:10.370Z,2.40
2023-08-07T16:30:38.061Z,2.20
2023-08-07T16:33:06.018Z,2.08
2023-08-07T16:35:33.719Z,2.28
2023-08-07T16:38:01.408Z,2.20
2023-08-07T16:40:30.059Z,1.95
2023-08-07T16:42:57.826Z,2.33
2023-08-07T16:45:26.400Z,2.20
2023-08-07T16:47:54.048Z,2.50
2023-08-07T16:50:21.604Z,2.30
2023-08-07T16:52:49.453Z,1.85
2023-08-07T16:58:02.143Z,2.40
2023-08-07T17:00:29.828Z,2.00
2023-08-07T17:02:57.858Z,2.30
2023-08-07T17:05:26.461Z,2.60
2023-08-07T17:07:54.149Z,2.70
2023-08-07T17:10:21.702Z,2.42
2023-08-07T17:12:49.719Z,2.90
2023-08-07T17:15:17.206Z,2.08
2023-08-07T17:17:44.979Z,2.17
2023-08-07T17:20:13.123Z,2.38
2023-08-07T17:22:40.933Z,2.50
2023-08-07T17:25:09.025Z,2.47
2023-08-07T17:27:36.711Z,2.33
2023-08-07T17:30:04.930Z,2.50
2023-08-07T17:32:32.751Z,2.42
2023-08-07T17:35:01.612Z,2.50
2023-08-07T17:37:29.940Z,2.70
2023-08-07T17:39:57.562Z,2.20
2023-08-07T17:42:25.184Z,2.50
2023-08-07T17:44:52.871Z,2.50
2023-08-07T17:47:20.413Z,2.50
2023-08-07T17:49:48.136Z,2.45
2023-08-07T17:52:16.336Z,2.25
2023-08-07T17:54:45.067Z,2.55
2023-08-07T17:57:31.801Z,2.15
2023-08-07T18:00:02.688Z,2.53
2023-08-07T18:02:35.145Z,2.70
2023-08-07T18:05:03.975Z,2.13
2023-08-07T18:07:31.896Z,2.13
2023-08-07T18:09:59.480Z,2.20
2023-08-07T18:12:27.074Z,2.65
2023-08-07T18:14:54.870Z,2.20
2023-08-07T18:17:22.588Z,2.70
2023-08-07T18:19:50.329Z,2.70
2023-08-07T18:22:19.635Z,2.60
2023-08-07T18:24:47.259Z,2.60
2023-08-07T18:27:15.371Z,2.70
2023-08-07T18:29:43.049Z,2.10
2023-08-07T18:32:10.652Z,2.10
2023-08-07T18:34:38.274Z,2.65
2023-08-07T18:37:05.886Z,2.50
2023-08-07T18:39:38.529Z,2.22
2023-08-07T18:42:07.268Z,2.38
2023-08-07T18:44:35.263Z,2.65
2023-08-07T18:47:03.020Z,3.38
2023-08-07T18:49:30.761Z,2.50
2023-08-07T18:52:17.852Z,2.50
2023-08-07T18:54:45.830Z,2.65
2023-08-07T18:57:14.058Z,2.15
2023-08-07T18:59:41.623Z,2.33
2023-08-07T19:02:09.365Z,2.53
2023-08-07T19:04:37.064Z,2.67
2023-08-07T19:07:05.097Z,2.80
2023-08-07T19:09:32.837Z,10.25
2023-08-07T19:12:00.470Z,3.58
2023-08-07T19:14:28.101Z,2.85
2023-08-07T19:16:55.686Z,2.40
2023-08-07T19:19:23.473Z,2.28
2023-08-07T19:21:51.011Z,2.20
2023-08-07T19:24:18.668Z,2.58
2023-08-07T19:26:46.206Z,2.17
2023-08-07T19:29:14.116Z,2.53
2023-08-07T19:31:43.142Z,2.65
2023-08-07T19:34:13.667Z,3.40
2023-08-07T19:36:41.751Z,2.28
2023-08-07T19:39:09.494Z,2.40
2023-08-07T19:41:37.520Z,2.22
2023-08-07T19:44:05.281Z,2.35
2023-08-07T19:46:33.027Z,2.28
2023-08-07T19:49:00.825Z,2.67
2023-08-07T19:51:28.425Z,2.63
2023-08-07T19:54:21.232Z,2.72
2023-08-07T19:56:48.895Z,2.22
2023-08-07T19:59:16.442Z,2.20
2023-08-07T20:01:44.185Z,2.35
2023-08-07T20:04:14.856Z,2.38
2023-08-07T20:06:42.726Z,2.08
2023-08-07T20:09:10.337Z,2.67
2023-08-07T20:11:38.916Z,2.75
2023-08-07T20:14:06.639Z,2.72
2023-08-07T20:16:34.323Z,2.38
2023-08-07T20:19:02.007Z,2.15
2023-08-07T20:21:29.714Z,2.38
2023-08-07T20:23:57.982Z,2.45
2023-08-07T20:26:25.634Z,2.72
2023-08-07T20:28:53.322Z,2.53
2023-08-07T20:31:21.004Z,2.38
2023-08-07T20:33:48.595Z,2.10
2023-08-07T20:36:16.973Z,2.75
2023-08-07T20:38:44.662Z,10.80
2023-08-07T20:41:12.284Z,2.40
2023-08-07T20:43:39.865Z,2.00
2023-08-07T20:46:08.213Z,2.30
2023-08-07T20:51:21.127Z,2.15
2023-08-07T20:53:48.719Z,2.30
2023-08-07T20:56:16.441Z,2.42
2023-08-07T20:58:44.037Z,2.67
2023-08-07T21:01:11.719Z,2.30
2023-08-07T21:03:39.378Z,2.47
2023-08-07T21:06:07.093Z,2.05
2023-08-07T21:08:34.694Z,2.50
2023-08-07T21:11:02.392Z,2.20
2023-08-07T21:13:30.029Z,2.30
2023-08-07T21:15:57.834Z,2.35
2023-08-07T21:18:25.409Z,2.35
2023-08-07T21:20:53.008Z,2.65
2023-08-07T21:23:20.697Z,2.50
2023-08-07T21:25:50.571Z,2.30
2023-08-07T21:28:18.300Z,2.53
2023-08-07T21:30:45.971Z,2.22
2023-08-07T21:33:13.773Z,3.13
2023-08-07T21:35:41.426Z,2.22
2023-08-07T21:38:09.105Z,2.33
2023-08-07T21:40:55.259Z,2.40
2023-08-07T21:43:41.649Z,2.33
2023-08-07T21:46:09.488Z,3.20
2023-08-07T21:48:37.100Z,2.35
2023-08-07T21:51:05.003Z,2.45
2023-08-07T21:53:33.003Z,2.95
2023-08-07T21:56:00.760Z,2.55
2023-08-07T21:58:28.393Z,2.67
2023-08-07T22:00:56.035Z,2.25
2023-08-07T22:03:23.631Z,2.28
2023-08-07T22:05:52.367Z,2.67
2023-08-07T22:08:20.069Z,2.40
2023-08-07T22:10:47.839Z,2.40
2023-08-07T22:13:15.428Z,3.00
2023-08-07T22:15:43.335Z,3.05
2023-08-07T22:18:11.043Z,3.00
2023-08-07T22:20:38.796Z,2.80
2023-08-07T22:23:06.426Z,2.35
2023-08-07T22:25:34.072Z,2.88
2023-08-07T22:28:01.696Z,2.45
2023-08-07T22:30:29.402Z,3.00
2023-08-07T22:32:57.407Z,2.80
2023-08-07T22:35:25.238Z,2.60
2023-08-07T22:37:52.974Z,3.22
2023-08-07T22:40:20.666Z,2.88
2023-08-07T22:43:07.173Z,3.00
2023-08-07T22:45:54.384Z,2.42
2023-08-07T22:48:22.169Z,2.60
2023-08-07T22:50:49.948Z,2.80
2023-08-07T22:53:17.603Z,3.05
2023-08-07T22:55:48.386Z,2.75
2023-08-07T22:58:16.076Z,2.60
2023-08-07T23:00:43.647Z,2.63
2023-08-07T23:03:11.638Z,3.08
2023-08-07T23:05:39.304Z,2.55
2023-08-07T23:10:53.254Z,2.55
2023-08-07T23:13:20.898Z,3.22
2023-08-07T23:16:06.952Z,3.47
2023-08-07T23:18:53.234Z,3.10
2023-08-07T23:21:21.086Z,2.35
2023-08-07T23:23:48.692Z,2.63
2023-08-07T23:26:16.347Z,2.33
2023-08-07T23:28:44.000Z,2.35
2023-08-07T23:31:11.726Z,2.40
2023-08-07T23:33:39.316Z,2.53
2023-08-07T23:36:07.024Z,2.70
2023-08-07T23:38:52.963Z,2.30
2023-08-07T23:41:20.693Z,2.42
2023-08-07T23:43:48.348Z,2.90
2023-08-07T23:46:16.377Z,2.30
2023-08-07T23:48:43.995Z,2.67
2023-08-07T23:51:11.606Z,2.70
2023-08-07T23:53:57.590Z,2.20
2023-08-07T23:56:43.693Z,2.33
2023-08-07T23:59:11.467Z,2.30
